createdAt,value
2018-02-22T00:00:55.075Z,79.80
2018-02-22T00:03:24.437Z,80.00
2018-02-22T00:05:54.474Z,80.30
2018-02-22T00:08:24.542Z,79.80
2018-02-22T00:10:53.872Z,79.80
2018-02-22T00:13:23.256Z,79.90
2018-02-22T00:15:52.550Z,80.30
2018-02-22T00:18:22.792Z,80.00
2018-02-22T00:20:52.112Z,80.00
2018-02-22T00:23:22.245Z,80.00
2018-02-22T00:25:52.322Z,80.20
2018-02-22T00:28:22.432Z,79.80
2018-02-22T00:30:51.775Z,79.80
2018-02-22T00:33:21.846Z,79.80
2018-02-22T00:35:51.226Z,79.70
2018-02-22T00:38:20.988Z,79.90
2018-02-22T00:40:50.334Z,79.40
2018-02-22T00:43:20.379Z,79.40
2018-02-22T00:45:49.745Z,79.40
2018-02-22T00:48:19.080Z,79.20
2018-02-22T00:50:48.410Z,79.90
2018-02-22T00:53:17.759Z,79.60
2018-02-22T00:55:47.122Z,79.70
2018-02-22T00:58:16.427Z,79.30
2018-02-22T01:00:46.554Z,79.60
2018-02-22T01:03:16.637Z,79.30
2018-02-22T01:05:45.989Z,79.30
2018-02-22T01:08:15.300Z,79.20
2018-02-22T01:10:44.612Z,79.20
2018-02-22T01:13:13.955Z,79.10
2018-02-22T01:15:43.264Z,79.10
2018-02-22T01:18:12.564Z,79.10
2018-02-22T01:20:41.926Z,79.40
2018-02-22T01:23:11.231Z,79.40
2018-02-22T01:25:40.555Z,79.50
2018-02-22T01:28:09.893Z,79.20
2018-02-22T01:30:39.193Z,79.30
2018-02-22T01:33:08.496Z,79.00
2018-02-22T01:35:37.824Z,78.80
2018-02-22T01:38:07.123Z,78.90
2018-02-22T01:40:36.415Z,78.60
2018-02-22T01:43:05.755Z,78.50
2018-02-22T01:45:35.088Z,78.50
2018-02-22T01:48:05.171Z,78.30
2018-02-22T01:50:34.494Z,78.30
2018-02-22T01:53:03.800Z,78.30
2018-02-22T01:55:34.132Z,78.20
2018-02-22T01:58:04.251Z,77.90
2018-02-22T02:00:33.608Z,77.90
2018-02-22T02:03:03.095Z,78.20
2018-02-22T02:05:32.449Z,77.80
2018-02-22T02:08:01.761Z,77.70
2018-02-22T02:10:31.126Z,77.80
2018-02-22T02:13:00.440Z,78.20
2018-02-22T02:15:29.762Z,77.80
2018-02-22T02:17:59.873Z,77.90
2018-02-22T02:20:29.960Z,77.70
2018-02-22T02:23:00.062Z,77.60
2018-02-22T02:25:29.381Z,77.50
2018-02-22T02:28:04.160Z,77.50
2018-02-22T02:30:34.253Z,77.80
2018-02-22T02:33:03.804Z,77.70
2018-02-22T02:35:33.127Z,78.10
2018-02-22T02:38:02.482Z,77.40
2018-02-22T02:40:32.567Z,77.30
2018-02-22T02:43:01.915Z,77.30
2018-02-22T02:45:31.218Z,77.50
2018-02-22T02:48:00.518Z,77.30
2018-02-22T02:50:30.393Z,77.10
2018-02-22T02:52:59.712Z,77.10
2018-02-22T02:55:29.822Z,77.80
2018-02-22T02:57:59.134Z,77.80
2018-02-22T03:00:29.266Z,77.90
2018-02-22T03:02:58.557Z,77.90
2018-02-22T03:05:28.697Z,78.00
2018-02-22T03:07:57.988Z,77.90
2018-02-22T03:10:27.295Z,78.30
2018-02-22T03:12:56.618Z,78.20
2018-02-22T03:15:25.931Z,78.10
2018-02-22T03:17:55.234Z,78.20
2018-02-22T03:20:24.591Z,78.50
2018-02-22T03:22:53.899Z,78.70
2018-02-22T03:25:23.196Z,78.80
2018-02-22T03:27:52.572Z,78.90
2018-02-22T03:30:22.655Z,79.20
2018-02-22T03:32:51.972Z,79.20
2018-02-22T03:35:21.341Z,79.30
2018-02-22T03:37:50.656Z,79.40
2018-02-22T03:40:19.992Z,79.80
2018-02-22T03:42:50.066Z,79.60
2018-02-22T03:45:19.408Z,79.60
2018-02-22T03:47:48.824Z,79.10
2018-02-22T03:50:18.942Z,79.00
2018-02-22T03:52:49.113Z,79.20
2018-02-22T03:55:18.426Z,79.20
2018-02-22T03:57:47.734Z,79.00
2018-02-22T04:00:17.128Z,78.70
2018-02-22T04:02:46.445Z,78.80
2018-02-22T04:05:15.766Z,78.90
2018-02-22T04:07:45.118Z,79.30
2018-02-22T04:10:14.432Z,79.50
2018-02-22T04:12:43.743Z,79.30
2018-02-22T04:15:13.086Z,79.40
2018-02-22T04:17:43.187Z,79.00
2018-02-22T04:20:12.525Z,79.00
2018-02-22T04:22:41.838Z,78.70
2018-02-22T04:25:11.133Z,78.70
2018-02-22T04:27:40.448Z,79.00
2018-02-22T04:30:09.759Z,79.00
2018-02-22T04:32:39.096Z,78.90
2018-02-22T04:35:09.160Z,79.60
2018-02-22T04:37:38.529Z,79.60
2018-02-22T04:40:08.638Z,79.50
2018-02-22T04:42:38.737Z,79.50
2018-02-22T04:45:08.060Z,79.40
2018-02-22T04:47:38.288Z,80.10
2018-02-22T04:50:07.606Z,80.00
2018-02-22T04:52:36.963Z,80.30
2018-02-22T04:55:06.281Z,80.10
2018-02-22T04:57:36.440Z,80.20
2018-02-22T05:00:05.919Z,80.20
2018-02-22T05:02:35.996Z,80.50
2018-02-22T05:05:05.327Z,80.40
2018-02-22T05:07:35.419Z,81.20
2018-02-22T05:10:05.539Z,80.50
2018-02-22T05:12:34.849Z,80.50
2018-02-22T05:15:04.157Z,80.50
2018-02-22T05:17:34.244Z,80.20
2018-02-22T05:20:03.553Z,80.70
2018-02-22T05:22:32.886Z,80.40
2018-02-22T05:25:02.951Z,80.50
2018-02-22T05:27:32.272Z,80.50
2018-02-22T05:30:01.840Z,80.50
2018-02-22T05:32:31.164Z,80.60
2018-02-22T05:35:00.464Z,80.50
2018-02-22T05:37:29.816Z,81.20
2018-02-22T05:39:59.882Z,80.60
2018-02-22T05:42:29.237Z,80.60
2018-02-22T05:44:58.596Z,79.90
2018-02-22T05:47:27.914Z,79.80
2018-02-22T05:49:57.220Z,79.80
2018-02-22T05:52:26.555Z,79.80
2018-02-22T05:54:56.642Z,80.20
2018-02-22T05:57:25.948Z,80.20
2018-02-22T05:59:55.289Z,80.30
2018-02-22T06:02:24.632Z,80.40
2018-02-22T06:04:53.980Z,81.10
2018-02-22T06:07:24.071Z,80.80
2018-02-22T06:09:53.391Z,80.70
2018-02-22T06:12:23.510Z,81.50
2018-02-22T06:14:53.602Z,81.30
2018-02-22T06:17:22.920Z,81.20
2018-02-22T06:19:53.019Z,82.00
2018-02-22T06:22:22.330Z,82.00
2018-02-22T06:24:51.688Z,82.30
2018-02-22T06:27:21.053Z,82.40
2018-02-22T06:29:51.175Z,82.10
2018-02-22T06:32:21.263Z,82.40
2018-02-22T06:34:50.594Z,82.40
2018-02-22T06:37:20.681Z,82.00
2018-02-22T06:39:50.028Z,82.00
2018-02-22T06:42:19.370Z,82.20
2018-02-22T06:44:48.684Z,82.30
2018-02-22T06:47:17.992Z,81.90
2018-02-22T06:49:47.325Z,82.70
2018-02-22T06:52:16.640Z,82.50
2018-02-22T06:54:45.966Z,82.40
2018-02-22T06:57:15.264Z,82.10
2018-02-22T06:59:44.611Z,82.10
2018-02-22T07:02:14.000Z,81.80
2018-02-22T07:04:43.330Z,81.80
2018-02-22T07:07:12.666Z,81.30
2018-02-22T07:09:41.970Z,81.20
2018-02-22T07:12:11.316Z,81.30
2018-02-22T07:14:42.184Z,82.40
2018-02-22T07:17:11.520Z,81.70
2018-02-22T07:19:40.845Z,81.10
2018-02-22T07:22:10.138Z,80.90
2018-02-22T07:24:39.477Z,80.50
2018-02-22T07:27:08.793Z,80.70
2018-02-22T07:29:38.141Z,81.20
2018-02-22T07:32:07.462Z,81.20
2018-02-22T07:34:37.898Z,80.50
2018-02-22T07:37:07.989Z,80.30
2018-02-22T07:39:37.313Z,80.30
2018-02-22T07:42:07.419Z,81.40
2018-02-22T07:44:36.736Z,81.30
2018-02-22T07:47:06.842Z,80.90
2018-02-22T07:49:36.579Z,80.90
2018-02-22T07:52:05.934Z,80.90
2018-02-22T07:54:35.255Z,80.80
2018-02-22T07:57:04.581Z,80.60
2018-02-22T07:59:34.695Z,81.20
2018-02-22T08:02:04.780Z,80.50
2018-02-22T08:04:34.117Z,80.50
2018-02-22T08:07:04.193Z,80.40
2018-02-22T08:09:33.617Z,80.30
2018-02-22T08:12:02.925Z,80.80
2018-02-22T08:14:33.061Z,80.60
2018-02-22T08:17:02.362Z,80.50
2018-02-22T08:19:31.674Z,80.60
2018-02-22T08:22:01.014Z,80.60
2018-02-22T08:24:30.348Z,80.30
2018-02-22T08:26:59.657Z,80.70
2018-02-22T08:29:29.723Z,79.90
2018-02-22T08:31:59.094Z,79.80
2018-02-22T08:34:29.197Z,79.80
2018-02-22T08:36:59.300Z,79.60
2018-02-22T08:39:28.814Z,79.60
2018-02-22T08:41:58.132Z,79.10
2018-02-22T08:44:28.199Z,78.50
2018-02-22T08:46:57.523Z,78.30
2018-02-22T08:49:26.898Z,78.20
2018-02-22T08:51:56.205Z,78.80
2018-02-22T08:54:25.497Z,78.50
2018-02-22T08:56:54.838Z,77.70
2018-02-22T08:59:25.119Z,77.10
2018-02-22T09:01:54.453Z,77.10
2018-02-22T09:04:23.773Z,76.80
2018-02-22T09:06:53.107Z,77.30
2018-02-22T09:09:22.420Z,75.90
2018-02-22T09:11:51.756Z,75.10
2018-02-22T09:14:21.124Z,76.10
2018-02-22T09:16:50.442Z,75.30
2018-02-22T09:19:19.746Z,74.20
2018-02-22T09:21:49.072Z,74.40
2018-02-22T09:24:18.385Z,75.50
2018-02-22T09:26:48.508Z,75.00
2018-02-22T09:29:17.832Z,75.00
2018-02-22T09:31:47.141Z,74.80
2018-02-22T09:34:16.503Z,74.70
2018-02-22T09:36:46.582Z,75.20
2018-02-22T09:39:15.898Z,75.20
2018-02-22T09:41:45.192Z,73.70
2018-02-22T09:44:14.566Z,73.90
2018-02-22T09:46:43.879Z,73.80
2018-02-22T09:49:13.185Z,73.10
2018-02-22T09:51:42.548Z,73.50
2018-02-22T09:54:11.874Z,73.40
2018-02-22T09:56:41.188Z,72.10
2018-02-22T09:59:10.540Z,71.80
2018-02-22T10:01:39.867Z,71.70
2018-02-22T10:04:09.155Z,71.10
2018-02-22T10:06:38.489Z,71.60
2018-02-22T10:09:07.824Z,71.70
2018-02-22T10:11:37.895Z,71.80
2018-02-22T10:14:07.245Z,71.80
2018-02-22T10:16:37.326Z,71.00
2018-02-22T10:19:07.589Z,71.00
2018-02-22T10:21:37.661Z,70.20
2018-02-22T10:24:06.998Z,70.10
2018-02-22T10:26:36.306Z,71.10
2018-02-22T10:29:05.626Z,70.10
2018-02-22T10:31:34.959Z,69.60
2018-02-22T10:34:04.257Z,70.20
2018-02-22T10:36:33.616Z,70.80
2018-02-22T10:39:03.692Z,69.10
2018-02-22T10:41:33.022Z,68.60
2018-02-22T10:44:02.346Z,69.20
2018-02-22T10:46:32.413Z,70.10
2018-02-22T10:49:01.765Z,70.10
2018-02-22T10:51:31.848Z,69.70
2018-02-22T10:54:01.176Z,69.70
2018-02-22T10:56:31.285Z,70.20
2018-02-22T10:59:01.202Z,70.00
2018-02-22T11:01:36.040Z,68.90
2018-02-22T11:04:06.096Z,70.70
2018-02-22T11:06:35.417Z,70.70
2018-02-22T11:09:04.752Z,69.30
2018-02-22T11:11:34.821Z,70.10
2018-02-22T11:14:04.169Z,70.00
2018-02-22T11:16:33.472Z,69.30
2018-02-22T11:19:02.783Z,67.40
2018-02-22T11:21:32.858Z,70.70
2018-02-22T11:24:03.017Z,69.60
2018-02-22T11:26:32.345Z,69.60
2018-02-22T11:29:01.813Z,70.10
2018-02-22T11:31:31.113Z,70.10
2018-02-22T11:34:00.444Z,68.20
2018-02-22T11:36:30.523Z,68.90
2018-02-22T11:38:59.847Z,68.80
2018-02-22T11:41:29.134Z,67.10
2018-02-22T11:43:59.064Z,65.90
2018-02-22T11:46:29.137Z,65.80
2018-02-22T11:48:58.496Z,65.80
2018-02-22T11:51:27.797Z,65.50
2018-02-22T11:53:57.883Z,64.50
2018-02-22T11:56:27.225Z,64.50
2018-02-22T11:58:56.509Z,64.40
2018-02-22T12:01:27.450Z,64.30
2018-02-22T12:03:57.512Z,64.40
2018-02-22T12:06:26.953Z,64.40
2018-02-22T12:08:56.334Z,63.70
2018-02-22T12:11:25.643Z,63.60
2018-02-22T12:13:55.243Z,62.90
2018-02-22T12:16:24.508Z,64.30
2018-02-22T12:18:53.803Z,66.00
2018-02-22T12:21:23.123Z,63.20
2018-02-22T12:23:53.347Z,62.70
2018-02-22T12:26:22.657Z,62.70
2018-02-22T12:28:52.015Z,62.40
2018-02-22T12:31:22.072Z,63.40
2018-02-22T12:33:51.504Z,63.40
2018-02-22T12:36:20.811Z,62.10
2018-02-22T12:38:50.114Z,63.00
2018-02-22T12:41:20.887Z,61.40
2018-02-22T12:43:50.189Z,61.30
2018-02-22T12:46:19.489Z,62.50
2018-02-22T12:48:49.188Z,62.10
2018-02-22T12:51:18.488Z,61.40
2018-02-22T12:53:47.792Z,61.00
2018-02-22T12:56:18.721Z,60.40
2018-02-22T12:58:48.830Z,59.90
2018-02-22T13:01:19.399Z,61.60
2018-02-22T13:03:48.899Z,61.60
2018-02-22T13:06:18.278Z,60.50
2018-02-22T13:08:48.420Z,60.60
2018-02-22T13:11:17.737Z,60.60
2018-02-22T13:13:47.172Z,61.60
2018-02-22T13:16:16.512Z,61.50
2018-02-22T13:18:45.982Z,59.60
2018-02-22T13:21:16.086Z,60.30
2018-02-22T13:23:45.436Z,60.60
2018-02-22T13:26:14.742Z,59.70
2018-02-22T13:28:44.246Z,60.60
2018-02-22T13:31:13.533Z,60.70
2018-02-22T13:34:00.684Z,60.60
2018-02-22T13:36:30.071Z,59.00
2018-02-22T13:39:08.472Z,60.10
2018-02-22T13:41:37.783Z,60.50
2018-02-22T13:44:24.672Z,59.90
2018-02-22T13:46:54.096Z,59.40
2018-02-22T13:49:41.102Z,58.30
2018-02-22T13:52:10.479Z,59.20
2018-02-22T13:54:39.774Z,59.30
2018-02-22T13:57:19.552Z,59.10
2018-02-22T13:59:49.512Z,57.90
2018-02-22T14:02:26.609Z,58.40
2018-02-22T14:04:55.987Z,59.10
2018-02-22T14:07:25.388Z,57.90
2018-02-22T14:09:54.969Z,58.30
2018-02-22T14:12:24.586Z,58.60
2018-02-22T14:14:53.864Z,59.10
2018-02-22T14:17:23.940Z,58.50
2018-02-22T14:19:54.027Z,56.90
2018-02-22T14:22:25.439Z,56.80
2018-02-22T14:24:55.600Z,57.80
2018-02-22T14:27:25.631Z,57.80
2018-02-22T14:29:55.057Z,57.50
2018-02-22T14:32:24.402Z,57.40
2018-02-22T14:34:54.612Z,58.60
2018-02-22T14:37:23.887Z,58.50
2018-02-22T14:39:53.234Z,58.50
2018-02-22T14:42:22.570Z,59.30
2018-02-22T14:44:51.856Z,57.70
2018-02-22T14:47:21.161Z,57.60
2018-02-22T14:49:50.483Z,58.50
2018-02-22T14:52:19.825Z,57.80
2018-02-22T14:54:49.957Z,57.60
2018-02-22T14:57:19.349Z,57.60
2018-02-22T14:59:49.501Z,57.60
2018-02-22T15:02:24.738Z,58.10
2018-02-22T15:04:54.067Z,57.80
2018-02-22T15:07:23.400Z,58.80
2018-02-22T15:09:54.357Z,59.10
2018-02-22T15:12:23.710Z,59.00
2018-02-22T15:14:53.015Z,58.20
2018-02-22T15:17:22.364Z,57.70
2018-02-22T15:19:51.760Z,58.30
2018-02-22T15:22:21.859Z,58.80
2018-02-22T15:24:51.226Z,58.80
2018-02-22T15:27:20.598Z,59.30
2018-02-22T15:29:49.889Z,59.40
2018-02-22T15:32:19.201Z,59.50
2018-02-22T15:34:49.299Z,58.70
2018-02-22T15:37:19.382Z,58.80
2018-02-22T15:39:48.706Z,58.80
2018-02-22T15:42:18.764Z,59.80
2018-02-22T15:44:48.222Z,59.80
2018-02-22T15:47:18.294Z,61.00
2018-02-22T15:49:47.598Z,60.70
2018-02-22T15:52:16.899Z,59.00
2018-02-22T15:54:46.250Z,58.80
2018-02-22T15:57:16.302Z,58.80
2018-02-22T15:59:45.650Z,59.30
2018-02-22T16:02:14.964Z,59.20
2018-02-22T16:04:44.254Z,59.70
2018-02-22T16:07:13.585Z,59.90
2018-02-22T16:09:42.880Z,59.50
2018-02-22T16:12:12.982Z,59.00
2018-02-22T16:14:42.305Z,59.10
2018-02-22T16:17:12.838Z,59.10
2018-02-22T16:19:42.199Z,59.00
2018-02-22T16:22:11.473Z,58.50
2018-02-22T16:24:40.773Z,57.80
2018-02-22T16:27:10.869Z,57.80
2018-02-22T16:29:40.242Z,57.70
2018-02-22T16:32:10.356Z,58.80
2018-02-22T16:34:40.534Z,58.70
2018-02-22T16:37:09.830Z,58.70
2018-02-22T16:39:39.469Z,59.10
2018-02-22T16:42:09.744Z,59.40
2018-02-22T16:44:39.035Z,59.80
2018-02-22T16:47:08.453Z,60.20
2018-02-22T16:49:38.289Z,60.10
2018-02-22T16:52:07.571Z,59.00
2018-02-22T16:54:37.021Z,59.20
2018-02-22T16:57:06.409Z,59.50
2018-02-22T16:59:35.728Z,59.00
2018-02-22T17:02:05.020Z,59.80
2018-02-22T17:04:34.319Z,59.70
2018-02-22T17:07:03.663Z,59.70
2018-02-22T17:09:32.990Z,59.90
2018-02-22T17:12:02.291Z,60.20
2018-02-22T17:14:31.634Z,60.10
2018-02-22T17:17:00.947Z,60.20
2018-02-22T17:19:31.024Z,60.20
2018-02-22T17:22:00.360Z,60.10
2018-02-22T17:24:29.671Z,60.90
2018-02-22T17:27:05.354Z,61.80
2018-02-22T17:29:40.235Z,61.80
2018-02-22T17:32:15.048Z,62.20
2018-02-22T17:34:45.124Z,62.70
2018-02-22T17:40:24.403Z,61.90
2018-02-22T17:42:53.741Z,61.90
2018-02-22T17:45:23.410Z,61.10
2018-02-22T17:47:52.978Z,61.20
2018-02-22T17:50:23.092Z,60.70
2018-02-22T17:52:53.245Z,60.60
2018-02-22T17:55:22.598Z,60.60
2018-02-22T17:57:52.157Z,60.70
2018-02-22T18:00:21.489Z,60.30
2018-02-22T18:02:50.820Z,60.50
2018-02-22T18:05:21.055Z,60.70
2018-02-22T18:07:51.187Z,60.70
2018-02-22T18:10:20.672Z,60.70
2018-02-22T18:12:50.743Z,60.90
2018-02-22T18:15:20.687Z,60.90
2018-02-22T18:17:51.049Z,61.30
2018-02-22T18:20:20.878Z,60.80
2018-02-22T18:22:50.247Z,61.50
2018-02-22T18:25:20.356Z,60.80
2018-02-22T18:27:50.220Z,60.80
2018-02-22T18:30:19.644Z,61.20
2018-02-22T18:32:48.974Z,61.10
2018-02-22T18:35:18.318Z,60.90
2018-02-22T18:37:53.227Z,61.20
2018-02-22T18:40:28.899Z,61.80
2018-02-22T18:42:58.192Z,61.80
2018-02-22T18:45:27.527Z,62.20
2018-02-22T18:47:56.807Z,62.30
2018-02-22T18:50:26.950Z,62.10
2018-02-22T18:52:56.339Z,62.10
2018-02-22T18:55:25.660Z,61.80
2018-02-22T18:57:54.946Z,61.50
2018-02-22T19:00:24.305Z,61.80
2018-02-22T19:02:54.357Z,61.50
2018-02-22T19:05:23.703Z,61.50
2018-02-22T19:07:53.085Z,61.40
2018-02-22T19:10:22.391Z,62.10
2018-02-22T19:12:52.513Z,61.80
2018-02-22T19:15:21.803Z,61.40
2018-02-22T19:22:41.823Z,60.60
2018-02-22T19:25:11.113Z,60.50
2018-02-22T19:27:40.442Z,61.10
2018-02-22T19:30:09.755Z,61.50
2018-02-22T19:32:39.838Z,60.80
2018-02-22T19:35:09.148Z,60.80
2018-02-22T19:37:38.472Z,61.00
2018-02-22T19:40:07.757Z,61.00
2018-02-22T19:42:37.075Z,60.60
2018-02-22T19:45:07.147Z,59.80
2018-02-22T19:47:37.234Z,60.90
2018-02-22T19:50:06.549Z,60.90
2018-02-22T19:52:35.862Z,59.10
2018-02-22T19:55:05.159Z,58.50
2018-02-22T19:57:34.467Z,59.30
2018-02-22T20:00:03.782Z,58.70
2018-02-22T20:02:33.064Z,58.90
2018-02-22T20:05:02.381Z,58.30
2018-02-22T20:07:31.802Z,58.10
2018-02-22T20:10:01.148Z,57.90
2018-02-22T20:12:30.504Z,58.30
2018-02-22T20:14:59.821Z,58.30
2018-02-22T20:17:29.876Z,58.00
2018-02-22T20:20:00.240Z,58.00
2018-02-22T20:22:29.539Z,58.30
2018-02-22T20:24:58.855Z,58.20
2018-02-22T20:27:28.152Z,57.80
2018-02-22T20:29:57.442Z,58.50
2018-02-22T20:32:26.748Z,58.40
2018-02-22T20:34:56.097Z,57.90
2018-02-22T20:37:25.405Z,57.90
2018-02-22T20:39:54.836Z,58.10
2018-02-22T20:42:24.134Z,58.10
2018-02-22T20:44:53.437Z,57.90
2018-02-22T20:47:23.571Z,58.30
2018-02-22T20:49:52.905Z,58.50
2018-02-22T20:52:23.725Z,58.20
2018-02-22T20:55:07.654Z,58.50
2018-02-22T20:57:37.100Z,58.50
2018-02-22T21:00:06.691Z,58.20
2018-02-22T21:02:35.959Z,58.50
2018-02-22T21:05:05.297Z,58.40
2018-02-22T21:07:35.340Z,58.30
2018-02-22T21:10:04.720Z,58.30
2018-02-22T21:12:34.768Z,58.40
2018-02-22T21:15:04.184Z,58.40
2018-02-22T21:17:34.222Z,59.10
2018-02-22T21:20:03.643Z,58.80
2018-02-22T21:22:32.995Z,58.80
2018-02-22T21:25:02.302Z,59.00
2018-02-22T21:27:31.602Z,59.40
2018-02-22T21:30:00.921Z,59.30
2018-02-22T21:32:30.228Z,59.50
2018-02-22T21:34:59.534Z,59.90
2018-02-22T21:37:28.922Z,59.40
2018-02-22T21:39:58.284Z,59.60
2018-02-22T21:42:27.545Z,59.60
2018-02-22T21:44:56.870Z,59.60
2018-02-22T21:47:26.183Z,59.30
2018-02-22T21:49:55.480Z,59.50
2018-02-22T21:52:24.779Z,59.40
2018-02-22T21:54:54.199Z,59.50
2018-02-22T21:57:23.568Z,60.10
2018-02-22T21:59:53.829Z,61.40
2018-02-22T22:02:23.168Z,61.40
2018-02-22T22:04:52.453Z,61.70
2018-02-22T22:07:21.738Z,61.80
2018-02-22T22:09:51.072Z,62.00
2018-02-22T22:12:20.370Z,62.00
2018-02-22T22:14:49.789Z,62.40
2018-02-22T22:17:19.112Z,62.20
2018-02-22T22:19:48.408Z,61.80
2018-02-22T22:22:17.712Z,60.80
2018-02-22T22:24:47.045Z,60.00
2018-02-22T22:27:17.063Z,59.50
2018-02-22T22:29:46.363Z,59.60
2018-02-22T22:32:15.674Z,60.50
2018-02-22T22:34:45.750Z,60.60
2018-02-22T22:37:15.044Z,60.50
2018-02-22T22:39:44.345Z,62.50
2018-02-22T22:42:14.577Z,61.90
2018-02-22T22:44:44.640Z,62.40
2018-02-22T22:47:13.972Z,63.00
2018-02-22T22:49:43.289Z,62.50
2018-02-22T22:52:12.595Z,63.30
2018-02-22T22:54:41.909Z,63.40
2018-02-22T22:57:11.204Z,63.40
2018-02-22T22:59:41.271Z,64.20
2018-02-22T23:02:10.583Z,64.20
2018-02-22T23:04:39.870Z,64.10
2018-02-22T23:07:09.187Z,64.00
2018-02-22T23:09:38.477Z,64.00
2018-02-22T23:12:07.809Z,64.60
2018-02-22T23:14:37.103Z,64.60
2018-02-22T23:17:06.461Z,64.50
2018-02-22T23:19:35.742Z,65.30
2018-02-22T23:22:05.047Z,65.00
2018-02-22T23:24:34.350Z,65.20
2018-02-22T23:27:04.365Z,64.90
2018-02-22T23:29:33.683Z,64.10
2018-02-22T23:32:02.982Z,64.50
2018-02-22T23:34:32.300Z,64.50
2018-02-22T23:37:01.598Z,64.30
2018-02-22T23:39:30.920Z,64.80
2018-02-22T23:45:03.476Z,63.90
2018-02-22T23:47:32.797Z,64.30
2018-02-22T23:50:02.092Z,64.30
2018-02-22T23:52:31.418Z,64.30
2018-02-22T23:55:01.470Z,64.30
2018-02-22T23:57:30.788Z,65.00
